createdAt,value
2023-02-27T00:01:00.768Z,97072.20
2023-02-27T00:03:29.522Z,97072.67
2023-02-27T00:05:58.064Z,97064.05
2023-02-27T00:08:26.365Z,97063.68
2023-02-27T00:10:54.700Z,97060.56
2023-02-27T00:13:23.108Z,97052.82
2023-02-27T00:15:51.947Z,97056.19
2023-02-27T00:18:20.212Z,97062.26
2023-02-27T00:20:48.698Z,97061.86
2023-02-27T00:23:16.980Z,97060.52
2023-02-27T00:25:45.266Z,97057.98
2023-02-27T00:28:13.526Z,97054.60
2023-02-27T00:30:41.824Z,97055.45
2023-02-27T00:33:10.042Z,97055.70
2023-02-27T00:35:38.375Z,97057.17
2023-02-27T00:38:06.530Z,97057.42
2023-02-27T00:40:36.112Z,97058.54
2023-02-27T00:43:04.886Z,97062.81
2023-02-27T00:45:33.146Z,97064.40
2023-02-27T00:48:02.349Z,97067.73
2023-02-27T00:50:30.815Z,97067.13
2023-02-27T00:52:59.115Z,97059.79
2023-02-27T00:55:27.554Z,97057.75
2023-02-27T00:57:55.984Z,97055.98
2023-02-27T01:00:25.739Z,97061.38
2023-02-27T01:02:55.797Z,97065.55
2023-02-27T01:05:25.617Z,97059.52
2023-02-27T01:07:55.233Z,97063.47
2023-02-27T01:10:24.500Z,97067.43
2023-02-27T01:12:53.914Z,97067.77
2023-02-27T01:15:22.820Z,97070.96
2023-02-27T01:17:52.091Z,97071.20
2023-02-27T01:20:22.548Z,97068.23
2023-02-27T01:22:52.180Z,97066.04
2023-02-27T01:25:21.085Z,97065.25
2023-02-27T01:27:50.249Z,97063.67
2023-02-27T01:30:19.436Z,97066.45
2023-02-27T01:32:48.924Z,97069.34
2023-02-27T01:35:19.472Z,97068.77
2023-02-27T01:37:50.425Z,97066.17
2023-02-27T01:40:20.624Z,97067.67
2023-02-27T01:42:50.239Z,97071.27
2023-02-27T01:45:30.549Z,97067.90
2023-02-27T01:48:08.808Z,97067.42
2023-02-27T01:50:43.623Z,97061.52
2023-02-27T01:53:13.179Z,97055.30
2023-02-27T01:55:42.440Z,97056.52
2023-02-27T01:58:13.509Z,97056.48
2023-02-27T02:00:42.701Z,97061.13
2023-02-27T02:03:25.462Z,97064.27
2023-02-27T02:05:57.119Z,97064.52
2023-02-27T02:08:29.204Z,97067.50
2023-02-27T02:10:58.895Z,97065.30
2023-02-27T02:13:28.560Z,97068.67
2023-02-27T02:16:38.273Z,97075.61
2023-02-27T02:19:41.229Z,97074.98
2023-02-27T02:22:41.555Z,97076.65
2023-02-27T02:25:40.708Z,97076.34
2023-02-27T02:28:20.844Z,97085.50
2023-02-27T02:31:20.692Z,97085.77
2023-02-27T02:33:55.609Z,97095.66
2023-02-27T02:37:04.416Z,97098.79
2023-02-27T02:40:17.349Z,97100.15
2023-02-27T02:43:02.170Z,97101.02
2023-02-27T02:45:47.256Z,97099.73
2023-02-27T02:48:29.381Z,97103.08
2023-02-27T02:51:31.790Z,97105.21
2023-02-27T02:54:07.767Z,97108.00
2023-02-27T02:56:47.594Z,97104.25
2023-02-27T02:59:49.993Z,97108.71
2023-02-27T03:02:27.207Z,97111.48
2023-02-27T03:05:12.710Z,97114.05
2023-02-27T03:08:06.498Z,97118.71
2023-02-27T03:10:46.981Z,97124.86
2023-02-27T03:13:42.873Z,97125.95
2023-02-27T03:16:35.177Z,97130.00
2023-02-27T03:19:12.511Z,97134.42
2023-02-27T03:21:51.154Z,97135.54
2023-02-27T03:24:45.575Z,97136.98
2023-02-27T03:27:19.130Z,97139.84
2023-02-27T03:30:37.057Z,97137.79
2023-02-27T03:33:30.949Z,97141.92
2023-02-27T03:36:12.583Z,97142.34
2023-02-27T03:38:52.610Z,97141.71
2023-02-27T03:41:35.972Z,97147.64
2023-02-27T03:44:52.888Z,97148.31
2023-02-27T03:47:21.458Z,97148.02
2023-02-27T03:49:51.225Z,97150.94
2023-02-27T03:52:22.813Z,97160.07
2023-02-27T03:54:59.972Z,97159.41
2023-02-27T03:57:29.377Z,97160.66
2023-02-27T03:59:58.841Z,97166.73
2023-02-27T04:02:28.531Z,97169.27
2023-02-27T04:04:57.218Z,97173.42
2023-02-27T04:08:14.247Z,97173.67
2023-02-27T04:11:25.080Z,97175.30
2023-02-27T04:14:01.608Z,97171.34
2023-02-27T04:16:46.079Z,97174.30
2023-02-27T04:19:25.398Z,97181.60
2023-02-27T04:22:14.049Z,97178.46
2023-02-27T04:24:51.364Z,97181.95
2023-02-27T04:27:48.823Z,97187.40
2023-02-27T04:30:29.151Z,97190.92
2023-02-27T04:33:00.160Z,97194.39
2023-02-27T04:35:35.022Z,97200.18
2023-02-27T04:38:13.563Z,97200.48
2023-02-27T04:41:08.449Z,97204.27
2023-02-27T04:43:40.791Z,97204.08
2023-02-27T04:46:12.706Z,97206.38
2023-02-27T04:49:23.688Z,97203.23
2023-02-27T04:52:17.083Z,97203.38
2023-02-27T04:55:01.985Z,97212.20
2023-02-27T04:57:39.266Z,97219.87
2023-02-27T05:00:12.797Z,97228.52
2023-02-27T05:02:48.050Z,97228.30
2023-02-27T05:05:22.087Z,97233.82
2023-02-27T05:07:57.371Z,97237.44
2023-02-27T05:10:40.241Z,97243.38
2023-02-27T05:13:19.758Z,97245.90
2023-02-27T05:15:59.467Z,97245.79
2023-02-27T05:18:29.501Z,97251.14
2023-02-27T05:21:12.510Z,97255.63
2023-02-27T05:23:56.327Z,97258.33
2023-02-27T05:26:54.027Z,97261.98
2023-02-27T05:29:40.604Z,97267.86
2023-02-27T05:32:27.552Z,97274.27
2023-02-27T05:35:14.900Z,97277.66
2023-02-27T05:37:50.448Z,97283.46
2023-02-27T05:40:26.201Z,97289.20
2023-02-27T05:43:04.966Z,97300.32
2023-02-27T05:45:39.264Z,97306.43
2023-02-27T05:48:15.060Z,97314.73
2023-02-27T05:50:45.825Z,97314.48
2023-02-27T05:53:18.983Z,97317.63
2023-02-27T05:55:52.239Z,97325.77
2023-02-27T05:58:39.767Z,97331.52
2023-02-27T06:01:11.532Z,97331.83
2023-02-27T06:03:41.617Z,97338.67
2023-02-27T06:06:16.979Z,97343.21
2023-02-27T06:08:47.125Z,97341.47
2023-02-27T06:11:16.131Z,97345.31
2023-02-27T06:13:45.390Z,97345.92
2023-02-27T06:16:16.220Z,97350.59
2023-02-27T06:18:46.886Z,97349.11
2023-02-27T06:21:16.230Z,97348.88
2023-02-27T06:23:45.153Z,97357.46
2023-02-27T06:26:14.474Z,97358.34
2023-02-27T06:28:43.714Z,97361.63
2023-02-27T06:31:12.065Z,97365.52
2023-02-27T06:33:40.388Z,97368.36
2023-02-27T06:36:08.601Z,97373.49
2023-02-27T06:38:37.388Z,97374.36
2023-02-27T06:41:05.908Z,97378.54
2023-02-27T06:43:37.231Z,97379.41
2023-02-27T06:46:05.945Z,97387.66
2023-02-27T06:48:34.997Z,97390.92
2023-02-27T06:51:04.348Z,97390.39
2023-02-27T06:53:32.603Z,97393.85
2023-02-27T06:56:01.171Z,97396.11
2023-02-27T06:58:30.587Z,97397.20
2023-02-27T07:01:01.003Z,97396.48
2023-02-27T07:03:30.834Z,97398.80
2023-02-27T07:06:00.597Z,97404.09
2023-02-27T07:08:29.617Z,97409.13
2023-02-27T07:10:58.875Z,97408.20
2023-02-27T07:13:28.210Z,97416.39
2023-02-27T07:15:57.551Z,97414.66
2023-02-27T07:18:27.299Z,97414.35
2023-02-27T07:20:56.845Z,97415.92
2023-02-27T07:23:26.249Z,97418.42
2023-02-27T07:25:54.779Z,97422.13
2023-02-27T07:28:23.396Z,97424.39
2023-02-27T07:30:55.611Z,97432.19
2023-02-27T07:33:24.646Z,97434.24
2023-02-27T07:35:54.197Z,97435.30
2023-02-27T07:38:24.309Z,97442.59
2023-02-27T07:40:56.649Z,97449.61
2023-02-27T07:43:26.288Z,97452.60
2023-02-27T07:45:54.885Z,97456.00
2023-02-27T07:48:24.632Z,97459.32
2023-02-27T07:50:54.049Z,97465.09
2023-02-27T07:53:23.093Z,97469.89
2023-02-27T07:55:51.838Z,97472.80
2023-02-27T07:58:21.173Z,97477.27
2023-02-27T08:00:49.733Z,97471.96
2023-02-27T08:03:19.231Z,97481.54
2023-02-27T08:05:48.992Z,97481.09
2023-02-27T08:08:18.499Z,97485.89
2023-02-27T08:10:48.025Z,97491.02
2023-02-27T08:13:24.972Z,97492.89
2023-02-27T08:16:13.789Z,97499.27
2023-02-27T08:18:58.603Z,97506.63
2023-02-27T08:21:32.114Z,97513.33
2023-02-27T08:24:06.554Z,97517.86
2023-02-27T08:26:40.136Z,97514.22
2023-02-27T08:29:34.325Z,97515.27
2023-02-27T08:32:05.888Z,97520.02
2023-02-27T08:34:36.525Z,97520.78
2023-02-27T08:37:08.398Z,97526.04
2023-02-27T08:39:37.227Z,97527.09
2023-02-27T08:42:07.514Z,97533.50
2023-02-27T08:44:35.808Z,97547.67
2023-02-27T08:47:05.042Z,97552.70
2023-02-27T08:49:33.468Z,97556.55
2023-02-27T08:52:04.561Z,97558.07
2023-02-27T08:54:32.805Z,97559.05
2023-02-27T08:57:00.893Z,97559.66
2023-02-27T08:59:29.121Z,97567.04
2023-02-27T09:01:57.635Z,97574.09
2023-02-27T09:04:26.995Z,97578.35
2023-02-27T09:06:55.760Z,97585.45
2023-02-27T09:09:24.209Z,97592.71
2023-02-27T09:11:52.599Z,97599.60
2023-02-27T09:14:21.238Z,97601.25
2023-02-27T09:16:50.120Z,97603.13
2023-02-27T09:19:18.550Z,97610.71
2023-02-27T09:21:46.884Z,97608.63
2023-02-27T09:24:20.133Z,97607.94
2023-02-27T09:26:49.871Z,97606.70
2023-02-27T09:29:18.773Z,97611.02
2023-02-27T09:31:48.265Z,97611.54
2023-02-27T09:34:17.691Z,97611.95
2023-02-27T09:36:46.931Z,97614.45
2023-02-27T09:39:15.993Z,97616.23
2023-02-27T09:42:07.126Z,97617.55
2023-02-27T09:44:46.934Z,97629.70
2023-02-27T09:47:35.859Z,97637.93
2023-02-27T09:50:46.044Z,97646.10
2023-02-27T09:53:23.893Z,97653.27
2023-02-27T09:55:54.260Z,97649.40
2023-02-27T09:58:34.530Z,97649.97
2023-02-27T10:01:14.464Z,97650.50
2023-02-27T10:04:11.128Z,97657.46
2023-02-27T10:07:09.039Z,97660.66
2023-02-27T10:10:24.105Z,97664.84
2023-02-27T10:13:27.389Z,97675.02
2023-02-27T10:15:58.804Z,97677.85
2023-02-27T10:18:35.560Z,97679.16
2023-02-27T10:21:13.390Z,97678.04
2023-02-27T10:23:53.336Z,97685.92
2023-02-27T10:26:38.358Z,97688.29
2023-02-27T10:29:30.217Z,97686.66
2023-02-27T10:32:23.241Z,97696.69
2023-02-27T10:35:43.360Z,97697.67
2023-02-27T10:38:47.605Z,97696.40
2023-02-27T10:41:22.544Z,97697.21
2023-02-27T10:44:00.193Z,97695.71
2023-02-27T10:46:31.416Z,97702.57
2023-02-27T10:49:21.292Z,97706.98
2023-02-27T10:52:12.096Z,97719.80
2023-02-27T10:55:16.662Z,97722.97
2023-02-27T10:57:46.755Z,97732.55
2023-02-27T11:00:46.509Z,97731.23
2023-02-27T11:03:29.194Z,97736.23
2023-02-27T11:06:28.410Z,97744.59
2023-02-27T11:09:22.380Z,97744.92
2023-02-27T11:11:52.717Z,97744.96
2023-02-27T11:14:33.325Z,97743.60
2023-02-27T11:17:03.912Z,97751.34
2023-02-27T11:19:42.605Z,97750.55
2023-02-27T11:22:27.035Z,97755.19
2023-02-27T11:25:24.748Z,97757.70
2023-02-27T11:28:44.028Z,97762.65
2023-02-27T11:31:23.649Z,97765.06
2023-02-27T11:33:59.631Z,97767.82
2023-02-27T11:37:04.025Z,97769.43
2023-02-27T11:39:38.793Z,97772.30
2023-02-27T11:42:17.651Z,97773.30
2023-02-27T11:44:57.011Z,97779.67
2023-02-27T11:47:30.968Z,97783.15
2023-02-27T11:50:07.078Z,97787.77
2023-02-27T11:52:35.862Z,97782.10
2023-02-27T11:55:11.861Z,97785.21
2023-02-27T11:57:47.904Z,97788.04
2023-02-27T12:00:45.973Z,97794.33
2023-02-27T12:03:33.361Z,97797.20
2023-02-27T12:06:14.000Z,97809.55
2023-02-27T12:08:54.816Z,97807.16
2023-02-27T12:11:50.692Z,97815.29
2023-02-27T12:14:47.056Z,97823.65
2023-02-27T12:17:27.647Z,97833.90
2023-02-27T12:20:07.914Z,97838.20
2023-02-27T12:22:46.401Z,97839.35
2023-02-27T12:25:39.930Z,97841.23
2023-02-27T12:28:26.902Z,97845.44
2023-02-27T12:31:24.078Z,97849.88
2023-02-27T12:34:23.295Z,97853.61
2023-02-27T12:37:19.042Z,97858.21
2023-02-27T12:39:49.308Z,97859.85
2023-02-27T12:42:57.695Z,97864.41
2023-02-27T12:45:57.838Z,97867.76
2023-02-27T12:49:11.742Z,97874.85
2023-02-27T12:52:19.604Z,97880.21
2023-02-27T12:55:15.334Z,97887.48
2023-02-27T12:57:55.896Z,97895.50
2023-02-27T13:00:33.662Z,97896.35
2023-02-27T13:03:13.473Z,97900.96
2023-02-27T13:05:48.319Z,97905.23
2023-02-27T13:08:47.394Z,97911.13
2023-02-27T13:11:38.695Z,97914.04
2023-02-27T13:14:21.095Z,97922.89
2023-02-27T13:17:00.383Z,97925.73
2023-02-27T13:19:37.729Z,97926.92
2023-02-27T13:22:39.768Z,97928.77
2023-02-27T13:25:15.981Z,97930.35
2023-02-27T13:27:49.932Z,97933.23
2023-02-27T13:30:38.802Z,97934.48
2023-02-27T13:33:52.390Z,97941.20
2023-02-27T13:36:41.568Z,97947.23
2023-02-27T13:39:51.309Z,97952.79
2023-02-27T13:42:33.203Z,97960.88
2023-02-27T13:45:30.004Z,97966.66
2023-02-27T13:48:03.850Z,97965.89
2023-02-27T13:50:44.618Z,97971.52
2023-02-27T13:53:19.303Z,97974.45
2023-02-27T13:55:50.993Z,97975.92
2023-02-27T13:58:24.816Z,97982.22
2023-02-27T14:00:57.370Z,97983.31
2023-02-27T14:03:49.288Z,97989.08
2023-02-27T14:06:18.586Z,97987.82
2023-02-27T14:08:50.106Z,97992.73
2023-02-27T14:11:39.794Z,97997.38
2023-02-27T14:14:29.698Z,97997.13
2023-02-27T14:16:59.445Z,97997.02
2023-02-27T14:19:29.342Z,98000.42
2023-02-27T14:22:31.575Z,98003.04
2023-02-27T14:25:06.678Z,98005.59
2023-02-27T14:27:44.484Z,98005.63
2023-02-27T14:30:24.868Z,98007.28
2023-02-27T14:33:03.301Z,98006.47
2023-02-27T14:35:33.038Z,98005.39
2023-02-27T14:38:08.414Z,98011.53
2023-02-27T14:41:00.518Z,98019.59
2023-02-27T14:43:55.240Z,98022.19
2023-02-27T14:46:28.643Z,98024.21
2023-02-27T14:49:17.956Z,98027.20
2023-02-27T14:51:47.887Z,98025.70
2023-02-27T14:54:18.550Z,98031.15
2023-02-27T14:57:02.023Z,98035.00
2023-02-27T14:59:33.523Z,98032.33
2023-02-27T15:02:04.573Z,98033.01
2023-02-27T15:04:33.863Z,98033.02
2023-02-27T15:07:05.564Z,98036.41
2023-02-27T15:09:50.039Z,98034.79
2023-02-27T15:12:21.466Z,98037.57
2023-02-27T15:15:07.950Z,98048.34
2023-02-27T15:17:44.750Z,98054.39
2023-02-27T15:20:35.713Z,98061.73
2023-02-27T15:23:26.597Z,98070.15
2023-02-27T15:25:58.399Z,98078.98
2023-02-27T15:28:35.769Z,98085.09
2023-02-27T15:31:05.944Z,98094.95
2023-02-27T15:33:40.938Z,98098.40
2023-02-27T15:36:20.032Z,98106.44
2023-02-27T15:39:17.253Z,98110.34
2023-02-27T15:41:52.398Z,98115.25
2023-02-27T15:44:26.818Z,98120.17
2023-02-27T15:46:57.310Z,98114.98
2023-02-27T15:49:26.600Z,98118.98
2023-02-27T15:52:22.118Z,98120.41
2023-02-27T15:55:01.293Z,98122.17
2023-02-27T15:57:42.090Z,98122.92
2023-02-27T16:00:19.592Z,98132.23
2023-02-27T16:02:52.896Z,98134.23
2023-02-27T16:05:42.430Z,98136.84
2023-02-27T16:08:35.010Z,98145.42
2023-02-27T16:11:06.319Z,98154.75
2023-02-27T16:13:40.626Z,98157.67
2023-02-27T16:16:36.932Z,98162.90
2023-02-27T16:19:27.300Z,98166.35
2023-02-27T16:22:16.838Z,98174.45
2023-02-27T16:24:51.251Z,98176.59
2023-02-27T16:27:29.612Z,98180.27
2023-02-27T16:30:05.192Z,98185.52
2023-02-27T16:32:42.356Z,98188.04
2023-02-27T16:35:20.578Z,98185.33
2023-02-27T16:37:49.396Z,98184.55
2023-02-27T16:40:23.543Z,98187.06
2023-02-27T16:42:52.951Z,98188.02
2023-02-27T16:45:27.533Z,98199.40
2023-02-27T16:47:58.915Z,98204.43
2023-02-27T16:50:39.429Z,98206.80
2023-02-27T16:53:10.045Z,98204.84
2023-02-27T16:55:58.263Z,98200.98
2023-02-27T16:58:30.050Z,98203.71
2023-02-27T17:01:04.299Z,98209.53
2023-02-27T17:03:36.885Z,98216.60
2023-02-27T17:06:17.293Z,98228.77
2023-02-27T17:08:47.251Z,98234.85
2023-02-27T17:11:16.305Z,98236.45
2023-02-27T17:13:44.641Z,98234.06
2023-02-27T17:16:14.489Z,98234.90
2023-02-27T17:18:43.215Z,98238.19
2023-02-27T17:21:12.427Z,98244.34
2023-02-27T17:23:40.720Z,98258.33
2023-02-27T17:26:08.908Z,98261.15
2023-02-27T17:28:37.068Z,98263.00
2023-02-27T17:31:09.798Z,98262.52
2023-02-27T17:33:38.217Z,98262.94
2023-02-27T17:36:08.304Z,98259.20
2023-02-27T17:38:37.243Z,98263.59
2023-02-27T17:41:10.848Z,98264.17
2023-02-27T17:43:40.058Z,98265.30
2023-02-27T17:46:09.507Z,98268.84
2023-02-27T17:48:39.326Z,98270.66
2023-02-27T17:51:12.183Z,98271.98
2023-02-27T17:53:40.569Z,98277.88
2023-02-27T17:56:09.797Z,98275.33
2023-02-27T17:58:38.115Z,98278.40
2023-02-27T18:01:13.413Z,98278.77
2023-02-27T18:03:44.159Z,98280.73
2023-02-27T18:06:13.174Z,98280.66
2023-02-27T18:08:41.418Z,98283.64
2023-02-27T18:11:14.322Z,98281.03
2023-02-27T18:13:43.034Z,98278.14
2023-02-27T18:16:11.693Z,98280.30
2023-02-27T18:18:41.578Z,98291.80
2023-02-27T18:21:15.920Z,98299.58
2023-02-27T18:23:44.554Z,98291.89
2023-02-27T18:26:28.958Z,98292.61
2023-02-27T18:29:00.577Z,98299.82
2023-02-27T18:31:34.266Z,98300.45
2023-02-27T18:34:02.847Z,98301.91
2023-02-27T18:36:32.354Z,98301.52
2023-02-27T18:39:01.121Z,98304.77
2023-02-27T18:41:29.454Z,98305.54
2023-02-27T18:44:00.910Z,98307.89
2023-02-27T18:46:29.445Z,98308.72
2023-02-27T18:48:58.306Z,98313.71
2023-02-27T18:51:28.077Z,98314.45
2023-02-27T18:53:56.375Z,98314.75
2023-02-27T18:56:25.911Z,98309.59
2023-02-27T18:58:57.272Z,98313.74
2023-02-27T19:01:28.011Z,98314.22
2023-02-27T19:04:03.621Z,98319.73
2023-02-27T19:06:42.242Z,98324.20
2023-02-27T19:09:16.199Z,98318.06
2023-02-27T19:11:48.098Z,98320.21
2023-02-27T19:14:16.542Z,98322.52
2023-02-27T19:16:46.152Z,98320.46
2023-02-27T19:19:14.592Z,98316.02
2023-02-27T19:21:43.158Z,98320.08
2023-02-27T19:24:12.572Z,98320.04
2023-02-27T19:26:41.415Z,98325.60
2023-02-27T19:29:09.815Z,98330.18
2023-02-27T19:31:38.266Z,98333.42
2023-02-27T19:34:06.834Z,98346.02
2023-02-27T19:36:35.184Z,98352.65
2023-02-27T19:39:04.678Z,98358.29
2023-02-27T19:41:33.620Z,98361.88
2023-02-27T19:44:02.214Z,98364.98
2023-02-27T19:46:34.098Z,98366.14
2023-02-27T19:49:05.290Z,98365.73
2023-02-27T19:51:34.191Z,98367.31
2023-02-27T19:54:02.408Z,98366.34
2023-02-27T19:56:32.913Z,98371.33
2023-02-27T19:59:10.398Z,98372.92
2023-02-27T20:01:41.595Z,98369.27
2023-02-27T20:04:11.388Z,98372.49
2023-02-27T20:06:57.743Z,98372.85
2023-02-27T20:09:27.500Z,98366.86
2023-02-27T20:11:59.164Z,98371.46
2023-02-27T20:14:30.263Z,98370.01
2023-02-27T20:16:58.834Z,98377.86
2023-02-27T20:19:27.313Z,98378.86
2023-02-27T20:21:56.659Z,98373.13
2023-02-27T20:24:25.521Z,98370.55
2023-02-27T20:26:54.286Z,98369.42
2023-02-27T20:29:24.352Z,98366.48
2023-02-27T20:31:53.987Z,98368.09
2023-02-27T20:34:26.376Z,98376.02
2023-02-27T20:36:55.901Z,98374.68
2023-02-27T20:39:24.597Z,98383.13
2023-02-27T20:41:53.440Z,98379.65
2023-02-27T20:44:21.799Z,98376.58
2023-02-27T20:46:50.724Z,98378.04
2023-02-27T20:49:22.861Z,98380.90
2023-02-27T20:51:54.140Z,98376.91
2023-02-27T20:54:23.108Z,98380.52
2023-02-27T20:56:52.806Z,98378.39
2023-02-27T20:59:24.720Z,98381.08
2023-02-27T21:01:53.956Z,98384.61
2023-02-27T21:04:25.263Z,98384.98
2023-02-27T21:06:54.762Z,98384.33
2023-02-27T21:09:22.974Z,98381.13
2023-02-27T21:11:51.331Z,98382.81
2023-02-27T21:14:21.013Z,98376.54
2023-02-27T21:16:49.225Z,98374.23
2023-02-27T21:19:20.871Z,98371.09
2023-02-27T21:21:49.172Z,98367.01
2023-02-27T21:24:18.081Z,98365.27
2023-02-27T21:26:46.812Z,98368.72
2023-02-27T21:29:21.119Z,98368.30
2023-02-27T21:31:50.897Z,98366.13
2023-02-27T21:34:24.957Z,98368.84
2023-02-27T21:36:54.824Z,98366.15
2023-02-27T21:39:28.322Z,98362.64
2023-02-27T21:41:59.561Z,98374.66
2023-02-27T21:44:31.598Z,98385.48
2023-02-27T21:47:09.893Z,98396.45
2023-02-27T21:49:39.417Z,98410.38
2023-02-27T21:52:08.746Z,98407.48
2023-02-27T21:54:38.613Z,98407.33
2023-02-27T21:57:08.487Z,98407.48
2023-02-27T21:59:38.084Z,98410.84
2023-02-27T22:02:07.065Z,98400.04
2023-02-27T22:04:36.383Z,98400.05
2023-02-27T22:07:04.657Z,98412.21
2023-02-27T22:09:33.208Z,98417.27
2023-02-27T22:12:01.507Z,98423.30
2023-02-27T22:14:30.151Z,98430.30
2023-02-27T22:16:58.855Z,98444.15
2023-02-27T22:19:27.115Z,98444.69
2023-02-27T22:21:56.128Z,98458.04
2023-02-27T22:24:26.021Z,98454.81
2023-02-27T22:26:55.252Z,98440.28
2023-02-27T22:29:24.139Z,98437.30
2023-02-27T22:31:52.793Z,98444.65
2023-02-27T22:34:21.830Z,98444.69
2023-02-27T22:36:52.741Z,98444.59
2023-02-27T22:39:21.937Z,98442.73
2023-02-27T22:41:55.936Z,98439.45
2023-02-27T22:44:48.471Z,98434.72
2023-02-27T22:47:43.220Z,98425.83
2023-02-27T22:50:19.250Z,98427.25
2023-02-27T22:53:08.062Z,98424.96
2023-02-27T22:55:38.674Z,98420.95
2023-02-27T22:58:16.891Z,98422.94
2023-02-27T23:00:49.116Z,98429.29
2023-02-27T23:03:27.306Z,98432.61
2023-02-27T23:06:00.273Z,98429.48
2023-02-27T23:08:50.441Z,98428.23
2023-02-27T23:11:21.975Z,98426.59
2023-02-27T23:13:59.489Z,98427.05
2023-02-27T23:16:30.215Z,98426.97
2023-02-27T23:19:00.345Z,98423.98
2023-02-27T23:21:37.027Z,98428.76
2023-02-27T23:24:10.226Z,98426.37
2023-02-27T23:26:42.728Z,98428.33
2023-02-27T23:29:12.786Z,98428.02
2023-02-27T23:31:45.241Z,98430.31
2023-02-27T23:34:16.521Z,98438.13
2023-02-27T23:36:45.824Z,98438.33
2023-02-27T23:39:14.253Z,98445.70
2023-02-27T23:41:42.692Z,98444.98
2023-02-27T23:44:29.013Z,98448.05
2023-02-27T23:46:57.579Z,98447.14
2023-02-27T23:49:25.891Z,98449.38
2023-02-27T23:51:54.049Z,98450.75
2023-02-27T23:54:22.340Z,98453.59
2023-02-27T23:56:50.747Z,98458.11
2023-02-27T23:59:19.024Z,98455.80
